createdAt,value
2024-05-09T00:00:30.592Z,99.99
2024-05-09T00:01:26.782Z,99.99
2024-05-09T00:02:24.945Z,99.99
2024-05-09T00:03:24.768Z,99.99
2024-05-09T00:04:24.766Z,99.99
2024-05-09T00:05:24.889Z,99.99
2024-05-09T00:06:24.740Z,99.99
2024-05-09T00:07:24.728Z,99.99
2024-05-09T00:08:24.768Z,99.99
2024-05-09T00:09:24.692Z,99.99
2024-05-09T00:10:32.689Z,99.99
2024-05-09T00:11:26.820Z,99.99
2024-05-09T00:12:24.822Z,99.99
2024-05-09T00:13:24.656Z,99.99
2024-05-09T00:14:24.735Z,99.99
2024-05-09T00:15:24.625Z,99.99
2024-05-09T00:16:24.648Z,99.99
2024-05-09T00:17:24.756Z,99.99
2024-05-09T00:18:25.729Z,99.99
2024-05-09T00:19:24.784Z,99.99
2024-05-09T00:20:32.731Z,99.99
2024-05-09T00:21:25.620Z,99.99
2024-05-09T00:22:24.582Z,99.99
2024-05-09T00:23:24.597Z,99.99
2024-05-09T00:24:24.566Z,99.99
2024-05-09T00:25:24.584Z,99.99
2024-05-09T00:26:24.641Z,99.99
2024-05-09T00:27:24.539Z,99.99
2024-05-09T00:28:24.538Z,99.99
2024-05-09T00:29:24.657Z,99.99
2024-05-09T00:30:33.135Z,99.99
2024-05-09T00:31:25.511Z,99.99
2024-05-09T00:32:24.624Z,99.99
2024-05-09T00:33:24.776Z,99.99
2024-05-09T00:34:24.648Z,99.99
2024-05-09T00:35:24.687Z,99.99
2024-05-09T00:36:24.476Z,99.99
2024-05-09T00:37:24.466Z,99.99
2024-05-09T00:38:24.491Z,99.99
2024-05-09T00:39:24.482Z,99.99
2024-05-09T00:40:34.740Z,99.99
2024-05-09T00:41:26.466Z,99.99
2024-05-09T00:42:24.431Z,99.99
2024-05-09T00:43:24.418Z,99.99
2024-05-09T00:44:24.589Z,99.99
2024-05-09T00:45:24.404Z,99.99
2024-05-09T00:46:24.394Z,99.99
2024-05-09T00:47:24.778Z,99.99
2024-05-09T00:48:24.448Z,99.99
2024-05-09T00:49:24.626Z,99.99
2024-05-09T00:50:29.987Z,99.99
2024-05-09T00:51:26.366Z,99.99
2024-05-09T00:52:24.357Z,99.99
2024-05-09T00:53:24.437Z,99.99
2024-05-09T00:54:24.355Z,99.99
2024-05-09T00:55:24.328Z,99.99
2024-05-09T00:56:24.398Z,99.99
2024-05-09T00:57:24.309Z,99.99
2024-05-09T00:58:24.354Z,99.99
2024-05-09T00:59:24.392Z,99.99
2024-05-09T01:00:31.530Z,99.99
2024-05-09T01:01:26.334Z,99.99
2024-05-09T01:02:24.353Z,99.99
2024-05-09T01:03:24.642Z,99.99
2024-05-09T01:04:24.370Z,99.99
2024-05-09T01:05:24.281Z,99.99
2024-05-09T01:06:24.242Z,99.99
2024-05-09T01:07:24.265Z,99.99
2024-05-09T01:08:24.296Z,99.99
2024-05-09T01:09:24.227Z,99.99
2024-05-09T01:10:31.969Z,99.99
2024-05-09T01:11:26.384Z,99.99
2024-05-09T01:12:24.347Z,99.99
2024-05-09T01:13:24.219Z,99.99
2024-05-09T01:14:24.202Z,99.99
2024-05-09T01:15:24.181Z,99.99
2024-05-09T01:16:24.165Z,99.99
2024-05-09T01:17:24.253Z,99.99
2024-05-09T01:18:24.230Z,99.99
2024-05-09T01:19:24.282Z,99.99
2024-05-09T01:20:32.131Z,99.99
2024-05-09T01:21:25.227Z,99.99
2024-05-09T01:22:24.152Z,99.99
2024-05-09T01:23:24.141Z,99.99
2024-05-09T01:24:24.107Z,99.99
2024-05-09T01:25:24.108Z,99.99
2024-05-09T01:26:24.152Z,99.99
2024-05-09T01:27:24.106Z,99.99
2024-05-09T01:28:24.076Z,99.99
2024-05-09T01:29:24.254Z,99.99
2024-05-09T01:30:31.708Z,99.99
2024-05-09T01:31:26.082Z,99.99
2024-05-09T01:32:24.157Z,99.99
2024-05-09T01:33:24.125Z,99.99
2024-05-09T01:34:25.037Z,99.99
2024-05-09T01:35:24.197Z,99.99
2024-05-09T01:36:24.048Z,99.99
2024-05-09T01:37:24.003Z,99.99
2024-05-09T01:38:24.014Z,99.99
2024-05-09T01:39:23.985Z,99.99
2024-05-09T01:40:33.445Z,99.99
2024-05-09T01:41:50.957Z,99.99
2024-05-09T01:42:23.963Z,99.99
2024-05-09T01:43:23.964Z,99.99
2024-05-09T01:44:24.066Z,99.99
2024-05-09T01:45:23.970Z,99.99
2024-05-09T01:46:23.934Z,99.99
2024-05-09T01:47:24.092Z,99.99
2024-05-09T01:48:24.134Z,99.99
2024-05-09T01:49:24.155Z,99.99
2024-05-09T01:50:35.751Z,99.99
2024-05-09T01:51:25.891Z,99.99
2024-05-09T01:52:23.900Z,99.99
2024-05-09T01:53:23.926Z,99.99
2024-05-09T01:54:23.909Z,99.99
2024-05-09T01:55:23.902Z,99.99
2024-05-09T01:56:23.929Z,99.99
2024-05-09T01:57:23.851Z,99.99
2024-05-09T01:58:23.847Z,99.99
2024-05-09T01:59:23.904Z,99.99
2024-05-09T02:00:33.777Z,99.99
2024-05-09T02:01:25.831Z,99.99
2024-05-09T02:02:23.875Z,99.99
2024-05-09T02:03:23.921Z,99.99
2024-05-09T02:04:23.985Z,99.99
2024-05-09T02:05:23.896Z,99.99
2024-05-09T02:06:23.786Z,99.99
2024-05-09T02:07:23.778Z,99.99
2024-05-09T02:08:23.854Z,99.99
2024-05-09T02:09:23.779Z,99.99
2024-05-09T02:10:31.685Z,99.99
2024-05-09T02:11:24.805Z,99.99
2024-05-09T02:12:23.831Z,99.99
2024-05-09T02:13:23.741Z,99.99
2024-05-09T02:14:23.940Z,99.99
2024-05-09T02:15:23.705Z,99.99
2024-05-09T02:16:23.702Z,99.99
2024-05-09T02:17:23.795Z,99.99
2024-05-09T02:18:24.808Z,99.99
2024-05-09T02:19:23.975Z,99.99
2024-05-09T02:20:30.711Z,99.99
2024-05-09T02:21:25.671Z,99.99
2024-05-09T02:22:23.649Z,99.99
2024-05-09T02:23:23.720Z,99.99
2024-05-09T02:24:23.642Z,99.99
2024-05-09T02:25:23.640Z,99.99
2024-05-09T02:26:23.686Z,99.99
2024-05-09T02:27:23.625Z,99.99
2024-05-09T02:28:23.669Z,99.99
2024-05-09T02:29:23.665Z,99.99
2024-05-09T02:30:30.903Z,99.99
2024-05-09T02:31:24.599Z,99.99
2024-05-09T02:32:23.838Z,99.99
2024-05-09T02:33:23.952Z,99.99
2024-05-09T02:34:23.664Z,99.99
2024-05-09T02:35:23.690Z,99.99
2024-05-09T02:36:23.553Z,99.99
2024-05-09T02:37:23.591Z,99.99
2024-05-09T02:38:23.581Z,99.99
2024-05-09T02:39:23.518Z,99.99
2024-05-09T02:40:33.057Z,99.99
2024-05-09T02:41:25.600Z,99.99
2024-05-09T02:42:23.545Z,99.99
2024-05-09T02:43:23.502Z,99.99
2024-05-09T02:44:23.641Z,99.99
2024-05-09T02:45:23.486Z,99.99
2024-05-09T02:46:23.477Z,99.99
2024-05-09T02:47:23.671Z,99.99
2024-05-09T02:48:23.634Z,99.99
2024-05-09T02:49:23.615Z,99.99
2024-05-09T02:50:30.262Z,99.99
2024-05-09T02:51:25.450Z,99.99
2024-05-09T02:52:23.471Z,99.99
2024-05-09T02:53:23.462Z,99.99
2024-05-09T02:54:23.413Z,99.99
2024-05-09T02:55:23.416Z,99.99
2024-05-09T02:56:23.467Z,99.99
2024-05-09T02:57:23.428Z,99.99
2024-05-09T02:58:23.386Z,99.99
2024-05-09T02:59:23.436Z,99.99
2024-05-09T03:00:29.793Z,99.99
2024-05-09T03:01:24.399Z,99.99
2024-05-09T03:02:23.449Z,99.99
2024-05-09T03:03:23.799Z,99.99
2024-05-09T03:04:23.402Z,99.99
2024-05-09T03:05:23.332Z,99.99
2024-05-09T03:06:23.348Z,99.99
2024-05-09T03:07:23.335Z,99.99
2024-05-09T03:08:23.342Z,99.99
2024-05-09T03:09:23.299Z,99.99
2024-05-09T03:10:28.352Z,99.99
2024-05-09T03:11:24.381Z,99.99
2024-05-09T03:12:23.361Z,99.99
2024-05-09T03:13:23.293Z,99.99
2024-05-09T03:14:23.292Z,99.99
2024-05-09T03:15:23.289Z,99.99
2024-05-09T03:16:23.262Z,99.99
2024-05-09T03:17:23.404Z,99.99
2024-05-09T03:18:23.366Z,99.99
2024-05-09T03:19:23.269Z,99.99
2024-05-09T03:20:27.623Z,99.99
2024-05-09T03:21:25.208Z,99.99
2024-05-09T03:22:23.197Z,99.99
2024-05-09T03:23:23.240Z,99.99
2024-05-09T03:24:23.190Z,99.99
2024-05-09T03:25:23.207Z,99.99
2024-05-09T03:26:23.204Z,99.99
2024-05-09T03:27:23.163Z,99.99
2024-05-09T03:28:23.143Z,99.99
2024-05-09T03:29:23.211Z,99.99
2024-05-09T03:30:30.931Z,99.99
2024-05-09T03:31:24.142Z,99.99
2024-05-09T03:32:23.210Z,99.99
2024-05-09T03:33:23.401Z,99.99
2024-05-09T03:34:23.179Z,99.99
2024-05-09T03:35:23.205Z,99.99
2024-05-09T03:36:23.109Z,99.99
2024-05-09T03:37:23.079Z,99.99
2024-05-09T03:38:23.114Z,99.99
2024-05-09T03:39:23.151Z,99.99
2024-05-09T03:40:26.569Z,99.99
2024-05-09T03:41:25.134Z,99.99
2024-05-09T03:42:23.052Z,99.99
2024-05-09T03:43:23.053Z,99.99
2024-05-09T03:44:23.132Z,99.99
2024-05-09T03:45:23.028Z,99.99
2024-05-09T03:46:23.039Z,99.99
2024-05-09T03:47:23.164Z,99.99
2024-05-09T03:48:23.172Z,99.99
2024-05-09T03:49:23.146Z,99.99
2024-05-09T03:50:30.025Z,99.99
2024-05-09T03:51:24.971Z,99.99
2024-05-09T03:52:22.965Z,99.99
2024-05-09T03:53:23.077Z,99.99
2024-05-09T03:54:22.976Z,99.99
2024-05-09T03:55:22.958Z,99.99
2024-05-09T03:56:22.973Z,99.99
2024-05-09T03:57:22.939Z,99.99
2024-05-09T03:58:22.928Z,99.99
2024-05-09T03:59:22.955Z,99.99
2024-05-09T04:00:31.051Z,99.99
2024-05-09T04:01:23.933Z,99.99
2024-05-09T04:02:22.988Z,99.99
2024-05-09T04:03:23.159Z,99.99
2024-05-09T04:04:22.919Z,99.99
2024-05-09T04:05:22.877Z,99.99
2024-05-09T04:06:22.877Z,99.99
2024-05-09T04:07:22.847Z,99.99
2024-05-09T04:08:22.894Z,99.99
2024-05-09T04:09:22.848Z,99.99
2024-05-09T04:10:30.287Z,99.99
2024-05-09T04:11:24.887Z,99.99
2024-05-09T04:12:22.866Z,99.99
2024-05-09T04:13:22.825Z,99.99
2024-05-09T04:14:22.872Z,99.99
2024-05-09T04:15:22.816Z,99.99
2024-05-09T04:16:22.805Z,99.99
2024-05-09T04:17:22.914Z,99.99
2024-05-09T04:18:22.859Z,99.99
2024-05-09T04:19:22.920Z,99.99
2024-05-09T04:20:33.282Z,99.99
2024-05-09T04:21:24.734Z,99.99
2024-05-09T04:22:22.770Z,99.99
2024-05-09T04:23:22.777Z,99.99
2024-05-09T04:24:22.739Z,99.99
2024-05-09T04:25:22.714Z,99.99
2024-05-09T04:26:22.757Z,99.99
2024-05-09T04:27:22.722Z,99.99
2024-05-09T04:28:22.683Z,99.99
2024-05-09T04:29:22.701Z,99.99
2024-05-09T04:30:33.654Z,99.99
2024-05-09T04:31:23.674Z,99.99
2024-05-09T04:32:23.097Z,99.99
2024-05-09T04:33:23.046Z,99.99
2024-05-09T04:34:22.817Z,99.99
2024-05-09T04:35:22.700Z,99.99
2024-05-09T04:36:22.642Z,99.99
2024-05-09T04:37:22.642Z,99.99
2024-05-09T04:38:22.657Z,99.99
2024-05-09T04:39:23.608Z,99.99
2024-05-09T04:40:28.627Z,99.99
2024-05-09T04:41:24.669Z,99.99
2024-05-09T04:42:22.574Z,99.99
2024-05-09T04:43:22.555Z,99.99
2024-05-09T04:44:22.585Z,99.99
2024-05-09T04:45:22.552Z,99.99
2024-05-09T04:46:22.572Z,99.99
2024-05-09T04:47:22.659Z,99.99
2024-05-09T04:48:22.629Z,99.99
2024-05-09T04:49:22.578Z,99.99
2024-05-09T04:50:30.142Z,99.99
2024-05-09T04:51:24.516Z,99.99
2024-05-09T04:52:22.489Z,99.99
2024-05-09T04:53:22.546Z,99.99
2024-05-09T04:54:30.495Z,99.99
2024-05-09T04:55:24.498Z,99.99
2024-05-09T04:56:22.614Z,99.99
2024-05-09T04:57:22.454Z,99.99
2024-05-09T04:58:22.451Z,99.99
2024-05-09T04:59:22.479Z,99.99
2024-05-09T05:00:31.790Z,99.99
2024-05-09T05:01:23.426Z,99.99
2024-05-09T05:02:22.536Z,99.99
2024-05-09T05:03:22.770Z,99.99
2024-05-09T05:04:22.486Z,99.99
2024-05-09T05:05:22.440Z,99.99
2024-05-09T05:06:22.383Z,99.99
2024-05-09T05:07:22.377Z,99.99
2024-05-09T05:08:22.446Z,99.99
2024-05-09T05:09:22.384Z,99.99
2024-05-09T05:10:29.527Z,99.99
2024-05-09T05:11:23.550Z,99.99
2024-05-09T05:12:22.427Z,99.99
2024-05-09T05:13:23.410Z,99.99
2024-05-09T05:14:22.423Z,99.99
2024-05-09T05:15:22.322Z,99.99
2024-05-09T05:16:22.298Z,99.99
2024-05-09T05:17:22.340Z,99.99
2024-05-09T05:18:22.443Z,99.99
2024-05-09T05:19:22.399Z,99.99
2024-05-09T05:20:30.385Z,99.99
2024-05-09T05:21:23.272Z,99.99
2024-05-09T05:22:22.269Z,99.99
2024-05-09T05:23:22.385Z,99.99
2024-05-09T05:24:22.234Z,99.99
2024-05-09T05:25:22.228Z,99.99
2024-05-09T05:26:22.251Z,99.99
2024-05-09T05:27:22.210Z,99.99
2024-05-09T05:28:22.348Z,99.99
2024-05-09T05:29:22.244Z,99.99
2024-05-09T05:30:28.739Z,99.99
2024-05-09T05:31:23.215Z,99.99
2024-05-09T05:32:23.338Z,99.99
2024-05-09T05:33:22.804Z,99.99
2024-05-09T05:34:22.165Z,99.99
2024-05-09T05:35:22.161Z,99.99
2024-05-09T05:36:22.132Z,99.99
2024-05-09T05:37:22.158Z,99.99
2024-05-09T05:38:26.047Z,99.99
2024-05-09T05:39:24.113Z,99.99
2024-05-09T05:40:28.646Z,99.99
2024-05-09T05:41:24.164Z,99.99
2024-05-09T05:42:22.123Z,99.99
2024-05-09T05:43:22.092Z,99.48
2024-05-09T05:44:22.109Z,99.21
2024-05-09T05:45:22.074Z,99.68
2024-05-09T05:46:23.058Z,99.99
2024-05-09T05:47:23.175Z,99.99
2024-05-09T05:48:22.278Z,99.99
2024-05-09T05:49:22.198Z,99.99
2024-05-09T05:50:28.029Z,99.99
2024-05-09T05:51:24.049Z,99.99
2024-05-09T05:52:22.033Z,99.99
2024-05-09T05:53:22.067Z,99.99
2024-05-09T05:54:21.996Z,99.99
2024-05-09T05:55:21.988Z,99.99
2024-05-09T05:56:22.062Z,99.99
2024-05-09T05:57:22.008Z,99.99
2024-05-09T05:58:21.961Z,99.99
2024-05-09T05:59:21.986Z,99.99
2024-05-09T06:00:29.540Z,99.99
2024-05-09T06:01:23.994Z,99.99
2024-05-09T06:02:22.054Z,99.99
2024-05-09T06:03:22.178Z,99.99
2024-05-09T06:04:22.006Z,99.99
2024-05-09T06:05:22.216Z,99.99
2024-05-09T06:06:21.921Z,99.99
2024-05-09T06:07:22.020Z,99.99
2024-05-09T06:08:21.970Z,99.99
2024-05-09T06:09:21.910Z,99.75
2024-05-09T06:10:26.266Z,99.34
2024-05-09T06:11:22.974Z,99.09
2024-05-09T06:12:21.958Z,98.42
2024-05-09T06:13:21.844Z,98.88
2024-05-09T06:14:21.883Z,98.32
2024-05-09T06:15:21.949Z,99.28
2024-05-09T06:16:21.837Z,99.08
2024-05-09T06:17:21.963Z,99.49
2024-05-09T06:18:22.102Z,99.90
2024-05-09T06:19:22.032Z,99.28
2024-05-09T06:20:27.826Z,99.34
2024-05-09T06:21:23.864Z,99.18
2024-05-09T06:22:21.776Z,99.38
2024-05-09T06:23:21.821Z,99.99
2024-05-09T06:24:21.771Z,99.99
2024-05-09T06:25:21.769Z,99.99
2024-05-09T06:26:21.805Z,99.15
2024-05-09T06:27:21.727Z,98.53
2024-05-09T06:28:21.721Z,98.13
2024-05-09T06:29:21.796Z,97.37
2024-05-09T06:30:29.909Z,96.86
2024-05-09T06:31:22.695Z,96.10
2024-05-09T06:32:21.903Z,92.99
2024-05-09T06:33:21.853Z,92.62
2024-05-09T06:34:21.817Z,93.24
2024-05-09T06:35:21.756Z,93.07
2024-05-09T06:36:21.676Z,94.14
2024-05-09T06:37:21.658Z,94.45
2024-05-09T06:38:21.698Z,94.81
2024-05-09T06:39:21.669Z,94.97
2024-05-09T06:40:25.853Z,93.24
2024-05-09T06:41:23.700Z,93.85
2024-05-09T06:42:21.627Z,93.65
2024-05-09T06:43:21.619Z,94.10
2024-05-09T06:44:21.641Z,93.50
2024-05-09T06:45:21.589Z,92.99
2024-05-09T06:46:21.609Z,92.84
2024-05-09T06:47:21.697Z,92.08
2024-05-09T06:48:22.276Z,90.71
2024-05-09T06:49:21.711Z,90.10
2024-05-09T06:50:24.235Z,89.65
2024-05-09T06:51:23.606Z,88.39
2024-05-09T06:52:21.570Z,89.20
2024-05-09T06:53:21.704Z,88.85
2024-05-09T06:54:21.531Z,88.14
2024-05-09T06:55:21.557Z,87.98
2024-05-09T06:56:21.521Z,88.63
2024-05-09T06:57:21.507Z,89.86
2024-05-09T06:58:21.515Z,88.88
2024-05-09T07:00:27.731Z,89.39
2024-05-09T07:01:23.497Z,90.57
2024-05-09T07:02:21.605Z,90.16
2024-05-09T07:03:21.623Z,90.26
2024-05-09T07:04:21.589Z,90.32
2024-05-09T07:05:21.576Z,88.77
2024-05-09T07:06:21.430Z,87.47
2024-05-09T07:07:21.446Z,84.44
2024-05-09T07:08:21.480Z,83.45
2024-05-09T07:09:22.407Z,80.76
2024-05-09T07:10:28.678Z,78.31
2024-05-09T07:11:23.449Z,76.15
2024-05-09T07:12:21.480Z,72.74
2024-05-09T07:13:21.395Z,70.19
2024-05-09T07:14:21.412Z,67.32
2024-05-09T07:15:21.377Z,65.05
2024-05-09T07:16:21.356Z,64.59
2024-05-09T07:17:21.473Z,62.09
2024-05-09T07:18:21.526Z,61.04
2024-05-09T07:19:21.401Z,60.63
2024-05-09T07:20:31.391Z,59.70
2024-05-09T07:21:22.374Z,58.68
2024-05-09T07:22:21.379Z,59.34
2024-05-09T07:23:21.367Z,61.83
2024-05-09T07:24:21.290Z,61.79
2024-05-09T07:25:21.314Z,62.48
2024-05-09T07:26:21.354Z,62.25
2024-05-09T07:27:21.276Z,62.88
2024-05-09T07:28:21.342Z,62.75
2024-05-09T07:29:21.285Z,62.12
2024-05-09T07:30:27.551Z,62.82
2024-05-09T07:31:23.286Z,62.38
2024-05-09T07:32:21.345Z,62.48
2024-05-09T07:33:22.868Z,62.05
2024-05-09T07:34:21.526Z,61.85
2024-05-09T07:35:21.267Z,62.08
2024-05-09T07:36:21.229Z,62.18
2024-05-09T07:37:21.210Z,61.89
2024-05-09T07:38:21.262Z,61.09
2024-05-09T07:39:21.207Z,61.99
2024-05-09T07:40:29.048Z,60.41
2024-05-09T07:41:48.839Z,58.98
2024-05-09T07:42:21.171Z,60.50
2024-05-09T07:43:21.191Z,60.53
2024-05-09T07:44:21.176Z,60.16
2024-05-09T07:45:40.120Z,60.44
2024-05-09T07:47:17.292Z,60.93
2024-05-09T07:48:32.135Z,60.61
2024-05-09T07:53:30.307Z,60.55
2024-05-09T07:53:39.533Z,60.55
2024-05-09T07:54:22.250Z,60.71
2024-05-09T07:55:21.203Z,62.86
2024-05-09T07:56:22.857Z,61.77
2024-05-09T07:57:21.157Z,60.32
2024-05-09T07:58:21.055Z,59.17
2024-05-09T07:59:21.077Z,58.28
2024-05-09T08:00:29.490Z,58.58
2024-05-09T08:01:22.309Z,57.53
2024-05-09T08:02:21.272Z,56.81
2024-05-09T08:03:21.212Z,56.41
2024-05-09T08:04:22.433Z,56.96
2024-05-09T08:05:21.100Z,57.01
2024-05-09T08:06:21.000Z,56.91
2024-05-09T08:07:21.027Z,56.32
2024-05-09T08:08:21.021Z,57.17
2024-05-09T08:09:21.533Z,57.79
2024-05-09T08:10:24.544Z,58.16
2024-05-09T08:11:22.983Z,58.13
2024-05-09T08:12:20.964Z,56.02
2024-05-09T08:13:21.121Z,56.21
2024-05-09T08:14:20.968Z,56.02
2024-05-09T08:15:20.946Z,56.26
2024-05-09T08:16:21.172Z,55.07
2024-05-09T08:17:21.022Z,55.24
2024-05-09T08:18:21.038Z,55.32
2024-05-09T08:19:21.010Z,55.32
2024-05-09T08:20:30.133Z,56.44
2024-05-09T08:21:22.931Z,56.12
2024-05-09T08:22:20.949Z,56.59
2024-05-09T08:23:20.931Z,56.09
2024-05-09T08:24:20.888Z,55.10
2024-05-09T08:25:20.919Z,55.29
2024-05-09T08:26:20.877Z,54.53
2024-05-09T08:27:20.893Z,53.68
2024-05-09T08:28:21.025Z,53.63
2024-05-09T08:29:20.866Z,53.09
2024-05-09T08:30:25.461Z,53.06
2024-05-09T08:31:22.987Z,53.04
2024-05-09T08:32:20.899Z,54.85
2024-05-09T08:33:21.017Z,53.14
2024-05-09T08:34:20.982Z,53.83
2024-05-09T08:35:20.821Z,51.23
2024-05-09T08:36:20.812Z,51.45
2024-05-09T08:37:23.475Z,50.53
2024-05-09T08:38:22.805Z,49.44
2024-05-09T08:39:20.797Z,51.25
2024-05-09T08:40:30.448Z,51.15
2024-05-09T08:41:21.775Z,52.73
2024-05-09T08:42:20.847Z,51.54
2024-05-09T08:43:20.834Z,56.55
2024-05-09T08:44:20.754Z,55.16
2024-05-09T08:45:20.760Z,56.12
2024-05-09T08:46:21.141Z,55.18
2024-05-09T08:47:20.931Z,57.80
2024-05-09T08:48:20.887Z,55.68
2024-05-09T08:49:20.834Z,55.41
2024-05-09T08:50:29.230Z,56.57
2024-05-09T08:51:21.750Z,56.60
2024-05-09T08:52:20.704Z,55.28
2024-05-09T08:53:20.698Z,55.80
2024-05-09T08:54:20.695Z,54.96
2024-05-09T08:55:20.721Z,55.78
2024-05-09T08:56:20.708Z,57.40
2024-05-09T08:57:20.688Z,55.71
2024-05-09T08:58:20.830Z,55.91
2024-05-09T08:59:20.680Z,53.76
2024-05-09T09:00:29.600Z,53.58
2024-05-09T09:01:22.854Z,53.26
2024-05-09T09:02:20.827Z,52.94
2024-05-09T09:03:20.770Z,52.67
2024-05-09T09:04:20.797Z,52.14
2024-05-09T09:05:20.755Z,56.60
2024-05-09T09:06:20.636Z,57.93
2024-05-09T09:07:20.687Z,57.88
2024-05-09T09:08:20.622Z,58.84
2024-05-09T09:09:20.614Z,56.14
2024-05-09T09:10:29.153Z,56.84
2024-05-09T09:11:22.616Z,57.11
2024-05-09T09:12:20.610Z,57.88
2024-05-09T09:13:20.633Z,55.58
2024-05-09T09:14:20.611Z,55.79
2024-05-09T09:15:20.593Z,55.46
2024-05-09T09:16:20.727Z,55.43
2024-05-09T09:17:20.565Z,58.23
2024-05-09T09:18:20.790Z,54.36
2024-05-09T09:19:20.773Z,52.97
2024-05-09T09:20:26.381Z,52.99
2024-05-09T09:21:22.524Z,51.59
2024-05-09T09:22:20.549Z,58.11
2024-05-09T09:23:20.523Z,49.37
2024-05-09T09:24:20.525Z,52.29
2024-05-09T09:25:20.509Z,51.37
2024-05-09T09:26:20.508Z,54.11
2024-05-09T09:27:20.501Z,51.34
2024-05-09T09:28:20.516Z,48.19
2024-05-09T09:29:20.502Z,48.77
2024-05-09T09:30:31.828Z,49.40
2024-05-09T09:31:22.480Z,50.99
2024-05-09T09:32:20.474Z,51.79
2024-05-09T09:33:20.593Z,50.00
2024-05-09T09:34:20.518Z,47.72
2024-05-09T09:35:20.426Z,50.42
2024-05-09T09:36:20.420Z,52.12
2024-05-09T09:37:20.429Z,50.62
2024-05-09T09:38:20.427Z,50.32
2024-05-09T09:39:20.407Z,51.94
2024-05-09T09:40:22.351Z,54.47
2024-05-09T09:41:22.378Z,51.20
2024-05-09T09:42:20.391Z,51.07
2024-05-09T09:43:20.514Z,53.34
2024-05-09T09:44:20.358Z,53.84
2024-05-09T09:45:20.361Z,55.11
2024-05-09T09:46:20.422Z,55.62
2024-05-09T09:47:20.420Z,53.74
2024-05-09T09:48:20.571Z,55.87
2024-05-09T09:49:20.360Z,54.77
2024-05-09T09:50:27.098Z,55.64
2024-05-09T09:51:22.320Z,55.84
2024-05-09T09:52:20.453Z,53.57
2024-05-09T09:53:20.384Z,52.37
2024-05-09T09:54:20.298Z,55.69
2024-05-09T09:55:20.324Z,56.55
2024-05-09T09:56:20.311Z,54.35
2024-05-09T09:57:20.359Z,60.28
2024-05-09T09:58:20.372Z,55.77
2024-05-09T09:59:20.257Z,58.28
2024-05-09T10:00:26.809Z,55.77
2024-05-09T10:01:22.373Z,54.55
2024-05-09T10:02:20.392Z,56.12
2024-05-09T10:03:20.364Z,55.69
2024-05-09T10:04:20.366Z,56.99
2024-05-09T10:05:20.301Z,60.12
2024-05-09T10:06:20.201Z,59.35
2024-05-09T10:07:20.267Z,55.87
2024-05-09T10:08:20.180Z,56.17
2024-05-09T10:09:20.168Z,55.17
2024-05-09T10:10:27.056Z,56.05
2024-05-09T10:11:22.371Z,56.87
2024-05-09T10:12:20.230Z,60.21
2024-05-09T10:13:20.274Z,61.24
2024-05-09T10:14:20.146Z,58.33
2024-05-09T10:15:20.149Z,59.13
2024-05-09T10:16:20.265Z,56.57
2024-05-09T10:17:20.210Z,57.05
2024-05-09T10:18:20.252Z,53.89
2024-05-09T10:19:20.144Z,56.57
2024-05-09T10:20:24.689Z,53.74
2024-05-09T10:21:22.102Z,55.32
2024-05-09T10:22:20.174Z,54.02
2024-05-09T10:23:20.063Z,52.29
2024-05-09T10:24:20.055Z,52.97
2024-05-09T10:25:20.086Z,50.30
2024-05-09T10:26:20.062Z,49.68
2024-05-09T10:27:20.036Z,51.77
2024-05-09T10:28:20.059Z,56.88
2024-05-09T10:29:20.036Z,51.87
2024-05-09T10:30:26.108Z,51.72
2024-05-09T10:31:22.068Z,53.02
2024-05-09T10:32:20.074Z,53.69
2024-05-09T10:33:20.123Z,53.09
2024-05-09T10:34:20.389Z,54.17
2024-05-09T10:35:19.998Z,51.29
2024-05-09T10:36:19.961Z,49.59
2024-05-09T10:37:20.130Z,52.49
2024-05-09T10:38:19.950Z,53.19
2024-05-09T10:39:19.940Z,49.04
2024-05-09T10:40:26.004Z,50.54
2024-05-09T10:41:21.920Z,49.52
2024-05-09T10:42:19.976Z,52.52
2024-05-09T10:43:20.116Z,50.12
2024-05-09T10:44:19.942Z,52.12
2024-05-09T10:45:19.965Z,51.12
2024-05-09T10:46:20.388Z,54.32
2024-05-09T10:47:19.916Z,53.92
2024-05-09T10:48:19.944Z,50.92
2024-05-09T10:49:19.997Z,52.42
2024-05-09T10:50:25.749Z,52.00
2024-05-09T10:51:21.885Z,51.79
2024-05-09T10:52:19.893Z,52.97
2024-05-09T10:53:19.837Z,51.77
2024-05-09T10:54:19.857Z,54.57
2024-05-09T10:55:19.988Z,57.39
2024-05-09T10:56:19.813Z,53.32
2024-05-09T10:57:19.809Z,51.22
2024-05-09T10:58:19.908Z,50.70
2024-05-09T10:59:19.822Z,51.87
2024-05-09T11:00:27.514Z,51.32
2024-05-09T11:01:20.874Z,56.94
2024-05-09T11:02:19.884Z,54.04
2024-05-09T11:03:19.830Z,56.74
2024-05-09T11:04:19.848Z,51.67
2024-05-09T11:05:19.923Z,53.19
2024-05-09T11:06:19.737Z,53.09
2024-05-09T11:07:19.825Z,53.19
2024-05-09T11:08:19.747Z,51.75
2024-05-09T11:09:19.714Z,50.49
2024-05-09T11:10:27.126Z,53.69
2024-05-09T11:11:21.778Z,52.07
2024-05-09T11:12:22.788Z,54.52
2024-05-09T11:13:20.743Z,55.27
2024-05-09T11:14:19.677Z,56.82
2024-05-09T11:15:19.686Z,52.92
2024-05-09T11:16:20.170Z,51.82
2024-05-09T11:17:19.756Z,52.82
2024-05-09T11:18:20.988Z,53.69
2024-05-09T11:19:19.948Z,51.77
2024-05-09T11:20:26.696Z,49.59
2024-05-09T11:21:21.669Z,51.79
2024-05-09T11:22:19.719Z,51.32
2024-05-09T11:23:19.634Z,51.32
2024-05-09T11:24:19.605Z,49.72
2024-05-09T11:25:19.745Z,50.52
2024-05-09T11:26:19.611Z,56.02
2024-05-09T11:27:19.582Z,55.40
2024-05-09T11:28:19.611Z,53.62
2024-05-09T11:29:19.936Z,56.65
2024-05-09T11:30:26.554Z,56.62
2024-05-09T11:31:21.752Z,59.42
2024-05-09T11:32:19.603Z,56.85
2024-05-09T11:33:19.760Z,56.87
2024-05-09T11:34:19.652Z,56.60
2024-05-09T11:35:19.517Z,58.40
2024-05-09T11:36:19.522Z,57.90
2024-05-09T11:37:19.645Z,59.81
2024-05-09T11:38:19.500Z,58.40
2024-05-09T11:39:19.494Z,55.77
2024-05-09T11:40:25.410Z,55.85
2024-05-09T11:41:21.485Z,53.79
2024-05-09T11:42:19.531Z,52.97
2024-05-09T11:43:19.662Z,53.04
2024-05-09T11:44:19.458Z,54.24
2024-05-09T11:45:19.444Z,53.59
2024-05-09T11:46:19.536Z,56.07
2024-05-09T11:47:19.458Z,53.99
2024-05-09T11:48:19.709Z,54.19
2024-05-09T11:49:19.565Z,55.19
2024-05-09T11:50:27.012Z,50.87
2024-05-09T11:51:21.432Z,50.72
2024-05-09T11:52:19.452Z,50.40
2024-05-09T11:53:19.416Z,49.57
2024-05-09T11:54:19.394Z,48.13
2024-05-09T11:55:19.445Z,48.05
2024-05-09T11:56:19.409Z,48.71
2024-05-09T11:57:19.361Z,49.70
2024-05-09T11:58:19.638Z,48.31
2024-05-09T11:59:19.339Z,47.61
2024-05-09T12:00:29.059Z,48.73
2024-05-09T12:01:23.141Z,48.41
2024-05-09T12:02:20.533Z,49.90
2024-05-09T12:03:19.458Z,51.57
2024-05-09T12:04:19.518Z,51.64
2024-05-09T12:05:19.637Z,53.79
2024-05-09T12:06:19.283Z,54.19
2024-05-09T12:07:19.411Z,52.42
2024-05-09T12:08:19.265Z,51.09
2024-05-09T12:09:19.284Z,51.17
2024-05-09T12:10:22.495Z,51.15
2024-05-09T12:11:21.339Z,49.95
2024-05-09T12:12:19.249Z,54.14
2024-05-09T12:13:19.412Z,54.77
2024-05-09T12:14:19.220Z,55.84
2024-05-09T12:15:19.240Z,56.87
2024-05-09T12:16:19.366Z,51.17
2024-05-09T12:17:19.271Z,53.49
2024-05-09T12:18:19.222Z,55.69
2024-05-09T12:19:19.321Z,56.82
2024-05-09T12:20:25.837Z,51.94
2024-05-09T12:21:21.176Z,57.24
2024-05-09T12:22:19.276Z,53.42
2024-05-09T12:23:19.178Z,51.69
2024-05-09T12:24:19.173Z,53.27
2024-05-09T12:25:19.258Z,51.97
2024-05-09T12:26:19.136Z,53.74
2024-05-09T12:27:19.152Z,50.72
2024-05-09T12:28:19.155Z,52.99
2024-05-09T12:29:19.150Z,51.70
2024-05-09T12:30:32.094Z,48.78
2024-05-09T12:31:21.155Z,49.75
2024-05-09T12:32:19.183Z,48.73
2024-05-09T12:33:19.171Z,49.33
2024-05-09T12:34:19.117Z,50.52
2024-05-09T12:35:19.066Z,48.97
2024-05-09T12:36:19.066Z,51.25
2024-05-09T12:37:19.158Z,51.09
2024-05-09T12:38:19.066Z,52.42
2024-05-09T12:39:19.135Z,52.44
2024-05-09T12:40:26.752Z,53.37
2024-05-09T12:41:20.019Z,52.89
2024-05-09T12:42:26.766Z,52.42
2024-05-09T12:43:21.057Z,51.79
2024-05-09T12:44:19.002Z,53.50
2024-05-09T12:45:18.986Z,56.90
2024-05-09T12:46:19.037Z,56.77
2024-05-09T12:47:19.001Z,55.94
2024-05-09T12:48:19.175Z,54.02
2024-05-09T12:49:20.076Z,54.92
2024-05-09T12:50:29.109Z,55.99
2024-05-09T12:51:20.940Z,54.37
2024-05-09T12:52:18.972Z,50.24
2024-05-09T12:53:19.005Z,51.92
2024-05-09T12:54:18.933Z,49.57
2024-05-09T12:55:19.040Z,49.15
2024-05-09T12:56:18.910Z,49.25
2024-05-09T12:57:19.935Z,48.97